createdAt,value
2022-09-28T00:01:20.880Z,6.57
2022-09-28T00:03:50.102Z,4.10
2022-09-28T00:06:20.760Z,6.50
2022-09-28T00:08:50.293Z,4.97
2022-09-28T00:11:20.778Z,6.65
2022-09-28T00:13:52.880Z,5.32
2022-09-28T00:16:24.240Z,4.00
2022-09-28T00:18:52.411Z,6.93
2022-09-28T00:21:22.350Z,6.22
2022-09-28T00:24:15.003Z,5.15
2022-09-28T00:26:50.614Z,6.45
2022-09-28T00:29:22.485Z,5.68
2022-09-28T00:31:52.705Z,9.52
2022-09-28T00:34:20.326Z,3.85
2022-09-28T00:36:48.372Z,6.75
2022-09-28T00:39:16.874Z,4.85
2022-09-28T00:41:46.554Z,6.45
2022-09-28T00:44:25.631Z,7.40
2022-09-28T00:46:52.771Z,8.23
2022-09-28T00:49:25.489Z,6.95
2022-09-28T00:51:52.581Z,6.53
2022-09-28T00:54:19.936Z,6.95
2022-09-28T00:56:48.816Z,7.80
2022-09-28T00:59:16.681Z,7.45
2022-09-28T01:01:44.289Z,6.72
2022-09-28T01:04:11.528Z,6.95
2022-09-28T01:06:39.306Z,4.28
2022-09-28T01:09:10.590Z,8.95
2022-09-28T01:11:39.061Z,9.63
2022-09-28T01:14:11.513Z,7.70
2022-09-28T01:17:08.752Z,6.53
2022-09-28T01:20:52.674Z,9.20
2022-09-28T01:23:53.394Z,7.82
2022-09-28T01:26:29.339Z,5.00
2022-09-28T01:29:06.694Z,9.57
2022-09-28T01:31:37.231Z,8.23
2022-09-28T01:34:13.500Z,7.45
2022-09-28T01:36:50.770Z,4.63
2022-09-28T01:39:38.948Z,5.47
2022-09-28T01:42:14.965Z,4.95
2022-09-28T01:44:46.062Z,4.30
2022-09-28T01:47:17.286Z,5.72
2022-09-28T01:49:50.858Z,8.82
2022-09-28T01:52:30.297Z,4.63
2022-09-28T01:55:13.291Z,5.85
2022-09-28T01:58:04.890Z,6.43
2022-09-28T02:00:34.834Z,4.35
2022-09-28T02:03:09.123Z,6.65
2022-09-28T02:05:51.333Z,5.32
2022-09-28T02:08:22.310Z,3.85
2022-09-28T02:11:17.326Z,5.55
2022-09-28T02:13:48.896Z,3.97
2022-09-28T02:16:39.415Z,4.93
2022-09-28T02:19:22.562Z,3.00
2022-09-28T02:22:28.812Z,3.28
2022-09-28T02:25:00.259Z,3.67
2022-09-28T02:27:55.113Z,4.90
2022-09-28T02:30:22.916Z,4.93
2022-09-28T02:32:53.726Z,4.20
2022-09-28T02:35:22.206Z,3.42
2022-09-28T02:37:50.127Z,3.58
2022-09-28T02:40:22.154Z,3.53
2022-09-28T02:46:08.718Z,3.58
2022-09-28T02:49:30.278Z,3.50
2022-09-28T02:52:08.938Z,3.30
2022-09-28T02:55:08.249Z,3.30
2022-09-28T02:57:38.942Z,4.78
2022-09-28T03:00:12.703Z,1.83
2022-09-28T03:02:54.560Z,3.75
2022-09-28T03:05:52.768Z,2.65
2022-09-28T03:08:24.761Z,5.60
2022-09-28T03:11:07.796Z,2.85
2022-09-28T03:13:35.727Z,2.22
2022-09-28T03:16:07.863Z,3.45
2022-09-28T03:18:35.755Z,2.85
2022-09-28T03:21:04.866Z,2.85
2022-09-28T03:23:32.175Z,3.22
2022-09-28T03:26:01.741Z,2.42
2022-09-28T03:28:29.784Z,2.38
2022-09-28T03:30:58.068Z,2.58
2022-09-28T03:33:25.929Z,2.83
2022-09-28T03:35:53.487Z,2.50
2022-09-28T03:38:21.324Z,3.35
2022-09-28T03:40:59.912Z,4.97
2022-09-28T03:43:31.236Z,2.22
2022-09-28T03:46:01.864Z,3.25
2022-09-28T03:48:36.189Z,3.65
2022-09-28T03:51:07.078Z,3.10
2022-09-28T03:53:34.240Z,3.72
2022-09-28T03:56:07.724Z,3.05
2022-09-28T03:58:35.477Z,4.78
2022-09-28T04:01:06.229Z,3.25
2022-09-28T04:03:34.133Z,3.80
2022-09-28T04:06:01.492Z,2.40
2022-09-28T04:08:28.942Z,2.85
2022-09-28T04:10:58.654Z,3.17
2022-09-28T04:13:27.984Z,4.32
2022-09-28T04:15:57.136Z,4.72
2022-09-28T04:18:25.884Z,2.72
2022-09-28T04:21:07.186Z,2.72
2022-09-28T04:23:40.148Z,2.67
2022-09-28T04:26:16.785Z,4.57
2022-09-28T04:29:07.003Z,3.92
2022-09-28T04:31:49.870Z,3.58
2022-09-28T04:34:20.567Z,3.40
2022-09-28T04:36:48.734Z,5.63
2022-09-28T04:39:20.150Z,3.58
2022-09-28T04:41:51.317Z,3.95
2022-09-28T04:44:24.606Z,4.38
2022-09-28T04:46:59.721Z,4.20
2022-09-28T04:49:30.220Z,5.82
2022-09-28T04:52:02.375Z,5.57
2022-09-28T04:54:29.578Z,5.07
2022-09-28T04:56:58.327Z,5.03
2022-09-28T04:59:26.132Z,8.02
2022-09-28T05:01:54.301Z,5.93
2022-09-28T05:04:40.082Z,5.57
2022-09-28T05:07:26.953Z,5.82
2022-09-28T05:09:56.066Z,5.70
2022-09-28T05:12:24.075Z,9.02
2022-09-28T05:14:51.250Z,6.68
2022-09-28T05:17:18.589Z,6.03
2022-09-28T05:19:59.257Z,5.22
2022-09-28T05:22:26.514Z,7.93
2022-09-28T05:24:55.301Z,6.20
2022-09-28T05:27:24.323Z,5.78
2022-09-28T05:30:00.561Z,5.63
2022-09-28T05:32:31.006Z,5.97
2022-09-28T05:35:06.439Z,6.97
2022-09-28T05:37:41.642Z,6.15
2022-09-28T05:40:09.335Z,5.55
2022-09-28T05:42:38.028Z,5.85
2022-09-28T05:45:06.507Z,5.07
2022-09-28T05:47:38.335Z,6.75
2022-09-28T05:50:08.254Z,8.20
2022-09-28T05:52:35.616Z,6.70
2022-09-28T05:55:05.571Z,8.98
2022-09-28T05:57:33.509Z,4.95
2022-09-28T06:00:01.267Z,5.57
2022-09-28T06:02:28.820Z,6.63
2022-09-28T06:04:56.181Z,8.35
2022-09-28T06:07:23.974Z,6.95
2022-09-28T06:09:51.111Z,5.93
2022-09-28T06:12:23.268Z,7.37
2022-09-28T06:14:55.551Z,8.40
2022-09-28T06:17:23.638Z,7.90
2022-09-28T06:20:11.611Z,9.43
2022-09-28T06:22:57.108Z,6.78
2022-09-28T06:25:26.037Z,9.23
2022-09-28T06:28:04.024Z,8.93
2022-09-28T06:30:33.443Z,6.97
2022-09-28T06:33:02.277Z,7.43
2022-09-28T06:35:32.014Z,6.43
2022-09-28T06:38:00.398Z,8.60
2022-09-28T06:40:28.753Z,5.45
2022-09-28T06:43:02.648Z,6.15
2022-09-28T06:45:53.516Z,7.13
2022-09-28T06:48:39.161Z,7.20
2022-09-28T06:51:08.886Z,10.63
2022-09-28T06:53:57.239Z,11.13
2022-09-28T06:56:59.629Z,8.15
2022-09-28T06:59:26.789Z,7.57
2022-09-28T07:01:54.691Z,8.98
2022-09-28T07:04:52.228Z,6.45
2022-09-28T07:07:34.291Z,6.82
2022-09-28T07:10:19.973Z,6.30
2022-09-28T07:13:33.510Z,7.90
2022-09-28T07:16:06.339Z,5.88
2022-09-28T07:18:33.651Z,6.05
2022-09-28T07:21:20.415Z,7.72
2022-09-28T07:23:54.287Z,10.25
2022-09-28T07:26:25.743Z,7.65
2022-09-28T07:28:59.006Z,5.43
2022-09-28T07:31:43.670Z,7.40
2022-09-28T07:34:41.381Z,7.78
2022-09-28T07:37:13.559Z,6.65
2022-09-28T07:40:00.050Z,9.32
2022-09-28T07:42:30.839Z,7.65
2022-09-28T07:44:58.668Z,8.15
2022-09-28T07:47:32.309Z,6.15
2022-09-28T07:50:33.475Z,11.57
2022-09-28T07:53:15.153Z,12.30
2022-09-28T07:56:19.515Z,8.77
2022-09-28T07:59:06.911Z,9.95
2022-09-28T08:01:40.326Z,8.73
2022-09-28T08:04:10.974Z,10.00
2022-09-28T08:06:40.729Z,10.68
2022-09-28T08:09:10.044Z,8.52
2022-09-28T08:11:55.643Z,10.98
2022-09-28T08:14:44.676Z,8.05
2022-09-28T08:17:48.517Z,10.05
2022-09-28T08:20:36.435Z,8.60
2022-09-28T08:23:05.943Z,10.90
2022-09-28T08:25:34.761Z,10.25
2022-09-28T08:28:04.167Z,9.55
2022-09-28T08:30:34.562Z,9.93
2022-09-28T08:33:30.887Z,10.40
2022-09-28T08:36:16.715Z,11.05
2022-09-28T08:39:04.139Z,10.98
2022-09-28T08:41:52.960Z,11.00
2022-09-28T08:44:44.718Z,11.35
2022-09-28T08:47:46.145Z,12.98
2022-09-28T08:50:42.449Z,9.03
2022-09-28T08:53:36.114Z,9.93
2022-09-28T08:56:35.212Z,10.87
2022-09-28T08:59:05.726Z,9.77
2022-09-28T09:01:39.061Z,11.07
2022-09-28T09:04:10.433Z,13.45
2022-09-28T09:07:13.276Z,10.45
2022-09-28T09:10:09.467Z,10.07
2022-09-28T09:12:43.728Z,12.60
2022-09-28T09:15:17.519Z,9.40
2022-09-28T09:17:57.004Z,8.80
2022-09-28T09:20:52.966Z,12.90
2022-09-28T09:23:56.106Z,13.38
2022-09-28T09:26:41.379Z,8.73
2022-09-28T09:29:25.052Z,11.68
2022-09-28T09:32:17.655Z,10.32
2022-09-28T09:35:01.096Z,10.38
2022-09-28T09:37:49.370Z,7.88
2022-09-28T09:40:50.472Z,11.55
2022-09-28T09:44:19.536Z,10.48
2022-09-28T09:47:17.946Z,10.68
2022-09-28T09:50:06.795Z,13.70
2022-09-28T09:53:03.091Z,17.00
2022-09-28T09:55:36.630Z,11.80
2022-09-28T09:58:27.994Z,11.32
2022-09-28T10:01:13.252Z,13.07
2022-09-28T10:04:39.205Z,11.98
2022-09-28T10:07:22.265Z,12.98
2022-09-28T10:09:52.029Z,14.82
2022-09-28T10:12:29.401Z,11.20
2022-09-28T10:14:59.782Z,12.75
2022-09-28T10:17:28.302Z,19.20
2022-09-28T10:20:16.258Z,14.57
2022-09-28T10:23:03.793Z,14.23
2022-09-28T10:25:33.818Z,19.02
2022-09-28T10:28:03.173Z,14.55
2022-09-28T10:30:42.116Z,15.23
2022-09-28T10:33:29.680Z,15.07
2022-09-28T10:35:58.983Z,13.95
2022-09-28T10:38:26.907Z,18.70
2022-09-28T10:41:12.283Z,13.52
2022-09-28T10:44:06.864Z,12.98
2022-09-28T10:47:01.114Z,13.95
2022-09-28T10:49:47.303Z,13.23
2022-09-28T10:52:32.187Z,16.38
2022-09-28T10:57:33.310Z,10.88
2022-09-28T11:00:07.602Z,11.77
2022-09-28T11:02:48.993Z,10.82
2022-09-28T11:05:24.357Z,10.35
2022-09-28T11:07:56.032Z,12.00
2022-09-28T11:10:33.651Z,12.60
2022-09-28T11:13:14.375Z,11.82
2022-09-28T11:15:46.612Z,10.75
2022-09-28T11:18:32.636Z,11.80
2022-09-28T11:21:18.329Z,12.02
2022-09-28T11:24:19.106Z,10.77
2022-09-28T11:26:50.696Z,10.95
2022-09-28T11:29:41.940Z,11.93
2022-09-28T11:32:22.844Z,11.35
2022-09-28T11:35:32.275Z,12.18
2022-09-28T11:38:17.865Z,11.73
2022-09-28T11:41:41.126Z,12.80
2022-09-28T11:44:36.490Z,9.80
2022-09-28T11:47:34.525Z,9.80
2022-09-28T11:50:29.710Z,12.23
2022-09-28T11:53:19.903Z,11.40
2022-09-28T11:56:07.907Z,12.65
2022-09-28T11:58:42.235Z,9.60
2022-09-28T12:01:31.365Z,10.30
2022-09-28T12:04:33.776Z,14.35
2022-09-28T12:07:12.616Z,12.13
2022-09-28T12:09:52.498Z,10.20
2022-09-28T12:12:28.590Z,10.98
2022-09-28T12:15:01.371Z,8.85
2022-09-28T12:17:36.702Z,9.93
2022-09-28T12:20:16.558Z,10.18
2022-09-28T12:22:54.966Z,10.82
2022-09-28T12:25:24.248Z,10.63
2022-09-28T12:27:59.305Z,8.98
2022-09-28T12:30:31.369Z,9.38
2022-09-28T12:33:01.545Z,10.43
2022-09-28T12:36:03.976Z,11.52
2022-09-28T12:38:33.991Z,9.32
2022-09-28T12:41:36.564Z,11.13
2022-09-28T12:44:24.587Z,10.40
2022-09-28T12:47:38.675Z,8.82
2022-09-28T12:50:38.579Z,10.13
2022-09-28T12:53:23.672Z,8.30
2022-09-28T12:56:16.829Z,10.05
2022-09-28T12:59:12.378Z,7.90
2022-09-28T13:01:45.569Z,9.88
2022-09-28T13:04:15.329Z,10.05
2022-09-28T13:07:09.977Z,7.50
2022-09-28T13:10:01.635Z,10.32
2022-09-28T13:12:59.537Z,11.27
2022-09-28T13:15:58.001Z,7.82
2022-09-28T13:18:34.967Z,5.85
2022-09-28T13:21:33.282Z,9.00
2022-09-28T13:24:14.852Z,8.45
2022-09-28T13:26:55.726Z,8.18
2022-09-28T13:29:27.985Z,6.28
2022-09-28T13:31:58.404Z,7.28
2022-09-28T13:34:29.106Z,8.43
2022-09-28T13:37:25.764Z,8.60
2022-09-28T13:39:59.069Z,11.93
2022-09-28T13:43:04.871Z,8.13
2022-09-28T13:45:54.931Z,10.02
2022-09-28T13:48:28.496Z,9.52
2022-09-28T13:51:42.165Z,9.52
2022-09-28T13:54:15.831Z,7.95
2022-09-28T13:56:43.094Z,7.75
2022-09-28T13:59:22.177Z,6.32
2022-09-28T14:02:06.807Z,6.30
2022-09-28T14:05:20.515Z,11.40
2022-09-28T14:08:09.153Z,7.57
2022-09-28T14:10:49.032Z,11.43
2022-09-28T14:13:42.006Z,14.20
2022-09-28T14:16:18.252Z,8.70
2022-09-28T14:18:55.106Z,9.50
2022-09-28T14:22:04.338Z,8.60
2022-09-28T14:24:55.633Z,8.48
2022-09-28T14:27:32.644Z,7.93
2022-09-28T14:30:12.028Z,8.00
2022-09-28T14:32:50.762Z,10.18
2022-09-28T14:35:34.370Z,7.18
2022-09-28T14:38:44.367Z,6.97
2022-09-28T14:41:19.734Z,6.78
2022-09-28T14:43:46.703Z,9.10
2022-09-28T14:46:20.183Z,7.55
2022-09-28T14:49:04.057Z,9.85
2022-09-28T14:51:31.192Z,7.60
2022-09-28T14:54:13.391Z,11.30
2022-09-28T14:56:43.769Z,10.23
2022-09-28T14:59:17.510Z,15.32
2022-09-28T15:01:57.899Z,14.50
2022-09-28T15:04:29.129Z,11.00
2022-09-28T15:06:58.221Z,15.82
2022-09-28T15:09:35.526Z,5.65
2022-09-28T15:12:15.226Z,9.57
2022-09-28T15:15:04.002Z,8.95
2022-09-28T15:17:41.770Z,6.70
2022-09-28T15:20:32.519Z,12.20
2022-09-28T15:23:00.469Z,11.98
2022-09-28T15:25:29.922Z,12.55
2022-09-28T15:28:06.661Z,7.30
2022-09-28T15:30:35.263Z,8.55
2022-09-28T15:33:23.446Z,7.38
2022-09-28T15:36:03.079Z,10.63
2022-09-28T15:38:32.524Z,7.65
2022-09-28T15:41:04.675Z,14.05
2022-09-28T15:43:34.063Z,8.32
2022-09-28T15:46:21.983Z,12.68
2022-09-28T15:48:55.590Z,8.32
2022-09-28T15:51:26.028Z,6.65
2022-09-28T15:54:04.292Z,6.95
2022-09-28T15:56:31.751Z,7.50
2022-09-28T15:59:15.225Z,7.18
2022-09-28T16:01:45.620Z,13.85
2022-09-28T16:04:50.600Z,7.68
2022-09-28T16:07:28.952Z,9.75
2022-09-28T16:09:57.237Z,5.85
2022-09-28T16:12:33.431Z,8.90
2022-09-28T16:15:20.712Z,8.70
2022-09-28T16:18:02.724Z,6.45
2022-09-28T16:20:45.256Z,7.55
2022-09-28T16:23:21.266Z,6.85
2022-09-28T16:26:02.477Z,8.23
2022-09-28T16:28:34.895Z,7.38
2022-09-28T16:31:07.730Z,8.27
2022-09-28T16:36:19.852Z,8.32
2022-09-28T16:38:47.675Z,6.75
2022-09-28T16:41:27.183Z,11.23
2022-09-28T16:43:59.405Z,12.43
2022-09-28T16:46:37.559Z,6.30
2022-09-28T16:49:06.939Z,10.52
2022-09-28T16:51:34.175Z,9.50
2022-09-28T16:54:34.023Z,11.60
2022-09-28T16:57:02.630Z,7.07
2022-09-28T16:59:30.286Z,9.45
2022-09-28T17:01:58.395Z,6.38
2022-09-28T17:04:26.504Z,6.57
2022-09-28T17:06:55.497Z,5.65
2022-09-28T17:09:23.378Z,6.82
2022-09-28T17:11:56.239Z,7.80
2022-09-28T17:17:13.744Z,3.42
2022-09-28T17:19:41.771Z,9.18
2022-09-28T17:22:10.098Z,3.85
2022-09-28T17:24:37.736Z,5.93
2022-09-28T17:27:09.272Z,5.35
2022-09-28T17:29:36.399Z,4.22
2022-09-28T17:32:16.631Z,6.97
2022-09-28T17:35:39.757Z,3.30
2022-09-28T17:38:14.508Z,6.07
2022-09-28T17:44:25.347Z,5.47
2022-09-28T17:46:56.002Z,10.35
2022-09-28T17:49:26.061Z,6.13
2022-09-28T17:51:53.312Z,5.43
2022-09-28T17:54:22.634Z,10.20
2022-09-28T17:56:49.967Z,8.77
2022-09-28T17:59:19.266Z,15.57
2022-09-28T18:01:48.375Z,10.57
2022-09-28T18:04:39.625Z,13.13
2022-09-28T18:07:03.674Z,15.55
2022-09-28T18:09:30.822Z,14.85
2022-09-28T18:12:04.302Z,19.17
2022-09-28T18:14:31.468Z,11.13
2022-09-28T18:17:06.715Z,16.83
2022-09-28T18:19:33.822Z,13.93
2022-09-28T18:22:01.642Z,14.73
2022-09-28T18:24:29.270Z,11.20
2022-09-28T18:27:05.764Z,19.52
2022-09-28T18:29:41.057Z,13.70
2022-09-28T18:32:08.290Z,13.10
2022-09-28T18:34:37.280Z,9.48
2022-09-28T18:37:05.767Z,10.77
2022-09-28T18:39:36.202Z,12.75
2022-09-28T18:42:03.633Z,11.38
2022-09-28T18:44:31.603Z,16.10
2022-09-28T18:47:01.111Z,11.25
2022-09-28T18:49:31.222Z,9.32
2022-09-28T18:51:58.464Z,9.60
2022-09-28T18:54:27.289Z,9.88
2022-09-28T18:56:56.670Z,10.55
2022-09-28T18:59:24.029Z,9.57
2022-09-28T19:01:53.004Z,10.45
2022-09-28T19:04:20.682Z,16.30
2022-09-28T19:06:51.898Z,11.50
2022-09-28T19:09:21.154Z,13.10
2022-09-28T19:11:48.899Z,10.02
2022-09-28T19:14:16.927Z,14.40
2022-09-28T19:16:49.589Z,14.85
2022-09-28T19:19:19.204Z,10.18
2022-09-28T19:21:47.857Z,11.40
2022-09-28T19:24:17.199Z,10.48
2022-09-28T19:26:46.623Z,11.50
2022-09-28T19:29:14.782Z,14.80
2022-09-28T19:31:43.590Z,12.25
2022-09-28T19:34:13.445Z,8.88
2022-09-28T19:36:41.863Z,13.00
2022-09-28T19:39:13.281Z,8.25
2022-09-28T19:42:00.743Z,8.65
2022-09-28T19:44:29.809Z,8.13
2022-09-28T19:47:07.156Z,9.98
2022-09-28T19:49:43.403Z,9.07
2022-09-28T19:52:16.361Z,8.05
2022-09-28T19:54:57.961Z,9.85
2022-09-28T19:57:27.859Z,10.40
2022-09-28T20:00:00.916Z,12.23
2022-09-28T20:02:33.823Z,10.45
2022-09-28T20:05:01.167Z,7.53
2022-09-28T20:07:32.973Z,12.15
2022-09-28T20:10:00.234Z,10.18
2022-09-28T20:12:27.242Z,7.90
2022-09-28T20:14:54.423Z,14.48
2022-09-28T20:17:21.911Z,14.10
2022-09-28T20:19:51.247Z,13.00
2022-09-28T20:22:18.757Z,8.45
2022-09-28T20:24:45.889Z,6.95
2022-09-28T20:27:12.897Z,6.00
2022-09-28T20:29:39.951Z,8.95
2022-09-28T20:32:07.010Z,7.75
2022-09-28T20:34:34.133Z,8.23
2022-09-28T20:37:01.679Z,5.25
2022-09-28T20:39:28.810Z,6.60
2022-09-28T20:41:56.369Z,5.60
2022-09-28T20:44:23.417Z,6.28
2022-09-28T20:46:51.817Z,8.45
2022-09-28T20:49:19.018Z,12.43
2022-09-28T20:51:46.148Z,8.65
2022-09-28T20:54:13.172Z,8.52
2022-09-28T20:56:40.242Z,6.47
2022-09-28T20:59:09.568Z,5.75
2022-09-28T21:01:37.145Z,12.38
2022-09-28T21:04:07.461Z,10.80
2022-09-28T21:06:37.135Z,15.32
2022-09-28T21:09:06.653Z,17.75
2022-09-28T21:11:35.763Z,10.45
2022-09-28T21:14:05.848Z,10.65
2022-09-28T21:16:34.616Z,9.77
2022-09-28T21:19:01.734Z,19.10
2022-09-28T21:21:28.930Z,11.68
2022-09-28T21:23:57.553Z,15.77
2022-09-28T21:26:27.098Z,8.73
2022-09-28T21:28:58.587Z,16.80
2022-09-28T21:31:29.400Z,6.63
2022-09-28T21:33:57.784Z,10.57
2022-09-28T21:36:25.747Z,9.00
2022-09-28T21:38:54.321Z,15.43
2022-09-28T21:41:21.300Z,6.47
2022-09-28T21:43:48.296Z,8.15
2022-09-28T21:46:15.412Z,11.05
2022-09-28T21:48:42.429Z,8.85
2022-09-28T21:51:14.167Z,10.25
2022-09-28T21:53:41.373Z,10.70
2022-09-28T21:56:10.918Z,14.38
2022-09-28T21:58:38.565Z,9.73
2022-09-28T22:01:08.647Z,9.27
2022-09-28T22:03:36.694Z,13.45
2022-09-28T22:06:05.001Z,9.02
2022-09-28T22:08:33.179Z,9.52
2022-09-28T22:11:05.803Z,12.05
2022-09-28T22:13:35.754Z,13.35
2022-09-28T22:16:03.166Z,8.73
2022-09-28T22:18:31.936Z,10.80
2022-09-28T22:21:00.865Z,11.35
2022-09-28T22:23:29.258Z,12.57
2022-09-28T22:26:09.873Z,12.73
2022-09-28T22:28:37.574Z,10.77
2022-09-28T22:31:05.183Z,10.57
2022-09-28T22:33:32.311Z,11.05
2022-09-28T22:36:04.838Z,10.30
2022-09-28T22:38:42.293Z,10.15
2022-09-28T22:41:09.802Z,8.45
2022-09-28T22:43:38.164Z,9.98
2022-09-28T22:46:08.205Z,8.75
2022-09-28T22:48:35.575Z,8.40
2022-09-28T22:51:06.310Z,10.93
2022-09-28T22:53:34.448Z,11.38
2022-09-28T22:56:05.680Z,10.82
2022-09-28T22:58:34.685Z,11.98
2022-09-28T23:01:28.224Z,10.63
2022-09-28T23:03:56.335Z,10.57
2022-09-28T23:06:26.177Z,12.48
2022-09-28T23:08:53.447Z,10.95
2022-09-28T23:11:21.049Z,12.20
2022-09-28T23:13:52.952Z,9.75
2022-09-28T23:16:25.565Z,9.32
2022-09-28T23:18:54.837Z,9.52
2022-09-28T23:21:24.591Z,13.00
2022-09-28T23:23:54.532Z,9.57
2022-09-28T23:26:25.059Z,9.68
2022-09-28T23:28:53.005Z,12.68
2022-09-28T23:31:25.338Z,11.82
2022-09-28T23:34:00.271Z,8.18
2022-09-28T23:36:27.788Z,12.93
2022-09-28T23:38:54.726Z,11.30
2022-09-28T23:41:21.794Z,9.10
2022-09-28T23:43:48.911Z,7.75
2022-09-28T23:46:20.533Z,10.63
2022-09-28T23:48:48.907Z,9.93
2022-09-28T23:51:16.066Z,12.68
2022-09-28T23:53:43.727Z,11.68
2022-09-28T23:56:11.018Z,11.60
2022-09-28T23:58:38.063Z,9.77
